sensor_id;sensor_type;location;lat;lon;timestamp;P1;durP1;ratioP1;P2;durP2;ratioP2
76336;SDS011;65157;50.082;18.178;2023-02-25T00:00:24;35.60;;;16.40;;
76336;SDS011;65157;50.082;18.178;2023-02-25T00:03:10;42.50;;;17.90;;
76336;SDS011;65157;50.082;18.178;2023-02-25T00:05:38;43.10;;;20.30;;
76336;SDS011;65157;50.082;18.178;2023-02-25T00:08:05;36.80;;;17.50;;
76336;SDS011;65157;50.082;18.178;2023-02-25T00:10:32;40.80;;;18.00;;
76336;SDS011;65157;50.082;18.178;2023-02-25T00:12:59;45.00;;;21.90;;
76336;SDS011;65157;50.082;18.178;2023-02-25T00:15:26;43.90;;;21.30;;
76336;SDS011;65157;50.082;18.178;2023-02-25T00:17:53;48.40;;;22.30;;
76336;SDS011;65157;50.082;18.178;2023-02-25T00:20:19;51.10;;;23.10;;
76336;SDS011;65157;50.082;18.178;2023-02-25T00:22:46;43.90;;;20.50;;
76336;SDS011;65157;50.082;18.178;2023-02-25T00:25:13;50.10;;;22.00;;
76336;SDS011;65157;50.082;18.178;2023-02-25T00:27:39;48.00;;;19.60;;
76336;SDS011;65157;50.082;18.178;2023-02-25T00:30:06;45.20;;;19.20;;
76336;SDS011;65157;50.082;18.178;2023-02-25T00:32:34;48.50;;;21.90;;
76336;SDS011;65157;50.082;18.178;2023-02-25T00:35:00;43.00;;;18.70;;
76336;SDS011;65157;50.082;18.178;2023-02-25T00:37:27;43.50;;;20.10;;
76336;SDS011;65157;50.082;18.178;2023-02-25T00:39:54;42.90;;;19.50;;
76336;SDS011;65157;50.082;18.178;2023-02-25T00:42:20;44.70;;;19.50;;
76336;SDS011;65157;50.082;18.178;2023-02-25T00:44:47;45.20;;;21.20;;
76336;SDS011;65157;50.082;18.178;2023-02-25T00:47:17;46.60;;;22.40;;
76336;SDS011;65157;50.082;18.178;2023-02-25T00:49:45;44.90;;;19.60;;
76336;SDS011;65157;50.082;18.178;2023-02-25T00:52:13;46.30;;;22.40;;
76336;SDS011;65157;50.082;18.178;2023-02-25T00:54:40;49.10;;;21.40;;
76336;SDS011;65157;50.082;18.178;2023-02-25T00:57:08;47.70;;;23.00;;
76336;SDS011;65157;50.082;18.178;2023-02-25T00:59:34;51.90;;;23.00;;
76336;SDS011;65157;50.082;18.178;2023-02-25T01:02:01;48.90;;;21.20;;
76336;SDS011;65157;50.082;18.178;2023-02-25T01:04:28;44.20;;;20.70;;
76336;SDS011;65157;50.082;18.178;2023-02-25T01:06:54;44.90;;;21.20;;
76336;SDS011;65157;50.082;18.178;2023-02-25T01:09:21;47.60;;;21.90;;
76336;SDS011;65157;50.082;18.178;2023-02-25T01:11:48;46.90;;;20.60;;
76336;SDS011;65157;50.082;18.178;2023-02-25T01:14:22;44.80;;;20.30;;
76336;SDS011;65157;50.082;18.178;2023-02-25T01:16:50;47.40;;;19.60;;
76336;SDS011;65157;50.082;18.178;2023-02-25T01:19:22;50.90;;;21.20;;
76336;SDS011;65157;50.082;18.178;2023-02-25T01:21:51;47.30;;;19.20;;
76336;SDS011;65157;50.082;18.178;2023-02-25T01:24:24;41.80;;;19.40;;
76336;SDS011;65157;50.082;18.178;2023-02-25T01:26:54;43.90;;;19.30;;
76336;SDS011;65157;50.082;18.178;2023-02-25T01:29:27;41.50;;;18.80;;
76336;SDS011;65157;50.082;18.178;2023-02-25T01:31:57;37.90;;;17.10;;
76336;SDS011;65157;50.082;18.178;2023-02-25T01:34:26;42.30;;;18.40;;
76336;SDS011;65157;50.082;18.178;2023-02-25T01:36:54;41.20;;;17.80;;
76336;SDS011;65157;50.082;18.178;2023-02-25T01:39:21;43.70;;;19.30;;
76336;SDS011;65157;50.082;18.178;2023-02-25T01:41:49;39.50;;;18.50;;
76336;SDS011;65157;50.082;18.178;2023-02-25T01:44:17;39.20;;;17.20;;
76336;SDS011;65157;50.082;18.178;2023-02-25T01:46:53;35.80;;;16.30;;
76336;SDS011;65157;50.082;18.178;2023-02-25T01:49:23;41.00;;;17.90;;
76336;SDS011;65157;50.082;18.178;2023-02-25T01:52:00;42.40;;;19.30;;
76336;SDS011;65157;50.082;18.178;2023-02-25T01:54:29;41.30;;;19.40;;
76336;SDS011;65157;50.082;18.178;2023-02-25T01:56:58;50.10;;;20.90;;
76336;SDS011;65157;50.082;18.178;2023-02-25T01:59:25;43.70;;;18.60;;
76336;SDS011;65157;50.082;18.178;2023-02-25T02:01:54;51.20;;;21.10;;
76336;SDS011;65157;50.082;18.178;2023-02-25T02:04:21;32.00;;;13.20;;
76336;SDS011;65157;50.082;18.178;2023-02-25T02:06:49;51.00;;;21.50;;
76336;SDS011;65157;50.082;18.178;2023-02-25T02:09:18;46.60;;;19.80;;
76336;SDS011;65157;50.082;18.178;2023-02-25T02:11:47;41.30;;;17.20;;
76336;SDS011;65157;50.082;18.178;2023-02-25T02:14:19;34.70;;;14.40;;
76336;SDS011;65157;50.082;18.178;2023-02-25T02:33:37;17.10;;;8.40;;
76336;SDS011;65157;50.082;18.178;2023-02-25T02:36:29;18.00;;;7.40;;
76336;SDS011;65157;50.082;18.178;2023-02-25T02:41:46;17.80;;;9.10;;
76336;SDS011;65157;50.082;18.178;2023-02-25T02:44:25;5.70;;;3.50;;
76336;SDS011;65157;50.082;18.178;2023-02-25T02:47:04;13.30;;;7.40;;
76336;SDS011;65157;50.082;18.178;2023-02-25T02:49:39;19.60;;;8.30;;
76336;SDS011;65157;50.082;18.178;2023-02-25T02:52:13;15.60;;;7.90;;
76336;SDS011;65157;50.082;18.178;2023-02-25T02:54:45;19.00;;;8.90;;
76336;SDS011;65157;50.082;18.178;2023-02-25T02:57:19;15.30;;;7.40;;
76336;SDS011;65157;50.082;18.178;2023-02-25T02:59:49;14.00;;;7.70;;
76336;SDS011;65157;50.082;18.178;2023-02-25T03:02:33;12.60;;;6.50;;
76336;SDS011;65157;50.082;18.178;2023-02-25T03:05:03;15.10;;;6.00;;
76336;SDS011;65157;50.082;18.178;2023-02-25T03:07:34;12.00;;;6.10;;
76336;SDS011;65157;50.082;18.178;2023-02-25T03:10:05;16.40;;;7.60;;
76336;SDS011;65157;50.082;18.178;2023-02-25T03:12:33;9.60;;;5.10;;
76336;SDS011;65157;50.082;18.178;2023-02-25T03:14:59;13.90;;;6.30;;
76336;SDS011;65157;50.082;18.178;2023-02-25T03:17:27;5.90;;;2.90;;
76336;SDS011;65157;50.082;18.178;2023-02-25T03:20:02;11.50;;;4.20;;
76336;SDS011;65157;50.082;18.178;2023-02-25T03:22:45;10.40;;;4.20;;
76336;SDS011;65157;50.082;18.178;2023-02-25T03:25:20;5.00;;;3.00;;
76336;SDS011;65157;50.082;18.178;2023-02-25T03:27:51;8.00;;;4.00;;
76336;SDS011;65157;50.082;18.178;2023-02-25T03:30:34;7.50;;;3.00;;
76336;SDS011;65157;50.082;18.178;2023-02-25T03:33:12;4.80;;;3.10;;
76336;SDS011;65157;50.082;18.178;2023-02-25T03:35:44;4.90;;;2.60;;
76336;SDS011;65157;50.082;18.178;2023-02-25T03:38:16;6.90;;;3.30;;
76336;SDS011;65157;50.082;18.178;2023-02-25T03:40:46;5.50;;;3.80;;
76336;SDS011;65157;50.082;18.178;2023-02-25T03:43:16;4.30;;;3.20;;
76336;SDS011;65157;50.082;18.178;2023-02-25T03:45:49;4.00;;;2.80;;
76336;SDS011;65157;50.082;18.178;2023-02-25T03:48:15;4.00;;;2.80;;
76336;SDS011;65157;50.082;18.178;2023-02-25T03:50:46;4.80;;;3.10;;
76336;SDS011;65157;50.082;18.178;2023-02-25T03:53:16;2.80;;;2.10;;
76336;SDS011;65157;50.082;18.178;2023-02-25T03:55:43;3.50;;;2.60;;
76336;SDS011;65157;50.082;18.178;2023-02-25T03:58:10;2.70;;;2.20;;
76336;SDS011;65157;50.082;18.178;2023-02-25T04:00:37;3.90;;;2.50;;
76336;SDS011;65157;50.082;18.178;2023-02-25T04:03:08;3.60;;;2.10;;
76336;SDS011;65157;50.082;18.178;2023-02-25T04:05:35;3.80;;;2.60;;
76336;SDS011;65157;50.082;18.178;2023-02-25T04:08:02;4.60;;;2.30;;
76336;SDS011;65157;50.082;18.178;2023-02-25T04:10:28;3.40;;;2.50;;
76336;SDS011;65157;50.082;18.178;2023-02-25T04:12:55;3.20;;;2.30;;
76336;SDS011;65157;50.082;18.178;2023-02-25T04:15:21;2.90;;;2.20;;
76336;SDS011;65157;50.082;18.178;2023-02-25T04:17:48;3.50;;;2.50;;
76336;SDS011;65157;50.082;18.178;2023-02-25T04:20:15;3.40;;;2.50;;
76336;SDS011;65157;50.082;18.178;2023-02-25T04:22:42;6.00;;;2.70;;
76336;SDS011;65157;50.082;18.178;2023-02-25T04:25:09;5.00;;;2.90;;
76336;SDS011;65157;50.082;18.178;2023-02-25T04:27:36;5.50;;;2.90;;
76336;SDS011;65157;50.082;18.178;2023-02-25T04:30:03;4.10;;;2.90;;
76336;SDS011;65157;50.082;18.178;2023-02-25T04:32:30;4.40;;;2.90;;
76336;SDS011;65157;50.082;18.178;2023-02-25T04:34:57;4.30;;;2.80;;
76336;SDS011;65157;50.082;18.178;2023-02-25T04:37:23;4.80;;;3.40;;
76336;SDS011;65157;50.082;18.178;2023-02-25T04:39:50;6.50;;;3.90;;
76336;SDS011;65157;50.082;18.178;2023-02-25T04:42:17;5.70;;;3.10;;
76336;SDS011;65157;50.082;18.178;2023-02-25T04:44:43;4.20;;;2.90;;
76336;SDS011;65157;50.082;18.178;2023-02-25T04:47:10;3.90;;;2.80;;
76336;SDS011;65157;50.082;18.178;2023-02-25T04:49:36;3.20;;;2.50;;
76336;SDS011;65157;50.082;18.178;2023-02-25T04:52:03;3.50;;;2.60;;
76336;SDS011;65157;50.082;18.178;2023-02-25T04:54:29;4.00;;;2.70;;
76336;SDS011;65157;50.082;18.178;2023-02-25T04:56:56;6.10;;;3.30;;
76336;SDS011;65157;50.082;18.178;2023-02-25T04:59:23;5.30;;;3.80;;
76336;SDS011;65157;50.082;18.178;2023-02-25T05:01:49;5.20;;;3.40;;
76336;SDS011;65157;50.082;18.178;2023-02-25T05:04:16;5.70;;;3.60;;
76336;SDS011;65157;50.082;18.178;2023-02-25T05:06:43;5.80;;;3.60;;
76336;SDS011;65157;50.082;18.178;2023-02-25T05:09:10;5.70;;;3.50;;
76336;SDS011;65157;50.082;18.178;2023-02-25T05:11:36;9.80;;;5.00;;
76336;SDS011;65157;50.082;18.178;2023-02-25T05:14:03;6.00;;;3.70;;
76336;SDS011;65157;50.082;18.178;2023-02-25T05:16:30;7.10;;;4.40;;
76336;SDS011;65157;50.082;18.178;2023-02-25T05:18:56;7.50;;;3.80;;
76336;SDS011;65157;50.082;18.178;2023-02-25T05:21:24;5.50;;;3.60;;
76336;SDS011;65157;50.082;18.178;2023-02-25T05:23:52;5.30;;;3.60;;
76336;SDS011;65157;50.082;18.178;2023-02-25T05:26:19;5.00;;;3.20;;
76336;SDS011;65157;50.082;18.178;2023-02-25T05:28:48;4.40;;;2.60;;
76336;SDS011;65157;50.082;18.178;2023-02-25T05:31:18;4.20;;;3.20;;
76336;SDS011;65157;50.082;18.178;2023-02-25T05:33:45;4.10;;;2.80;;
76336;SDS011;65157;50.082;18.178;2023-02-25T05:36:12;3.60;;;2.70;;
76336;SDS011;65157;50.082;18.178;2023-02-25T05:38:42;3.80;;;2.50;;
76336;SDS011;65157;50.082;18.178;2023-02-25T05:41:11;6.90;;;4.10;;
76336;SDS011;65157;50.082;18.178;2023-02-25T05:43:41;5.10;;;3.70;;
76336;SDS011;65157;50.082;18.178;2023-02-25T05:46:09;4.20;;;3.00;;
76336;SDS011;65157;50.082;18.178;2023-02-25T05:48:37;4.60;;;2.90;;
76336;SDS011;65157;50.082;18.178;2023-02-25T05:51:07;3.10;;;2.40;;
76336;SDS011;65157;50.082;18.178;2023-02-25T05:53:37;5.60;;;3.60;;
76336;SDS011;65157;50.082;18.178;2023-02-25T05:56:07;4.40;;;2.70;;
76336;SDS011;65157;50.082;18.178;2023-02-25T05:58:38;4.50;;;3.70;;
76336;SDS011;65157;50.082;18.178;2023-02-25T06:01:06;6.70;;;3.80;;
76336;SDS011;65157;50.082;18.178;2023-02-25T06:03:34;6.30;;;3.80;;
76336;SDS011;65157;50.082;18.178;2023-02-25T06:06:02;3.20;;;2.30;;
76336;SDS011;65157;50.082;18.178;2023-02-25T06:08:28;4.60;;;2.90;;
76336;SDS011;65157;50.082;18.178;2023-02-25T06:10:55;6.40;;;3.90;;
76336;SDS011;65157;50.082;18.178;2023-02-25T06:13:22;8.00;;;4.40;;
76336;SDS011;65157;50.082;18.178;2023-02-25T06:15:48;7.50;;;4.30;;
76336;SDS011;65157;50.082;18.178;2023-02-25T06:18:15;14.00;;;6.50;;
76336;SDS011;65157;50.082;18.178;2023-02-25T06:20:41;7.90;;;3.80;;
76336;SDS011;65157;50.082;18.178;2023-02-25T06:23:08;9.30;;;3.20;;
76336;SDS011;65157;50.082;18.178;2023-02-25T06:25:35;13.40;;;4.60;;
76336;SDS011;65157;50.082;18.178;2023-02-25T06:28:01;16.20;;;5.60;;
76336;SDS011;65157;50.082;18.178;2023-02-25T06:30:28;19.30;;;6.90;;
76336;SDS011;65157;50.082;18.178;2023-02-25T06:32:56;6.10;;;3.00;;
76336;SDS011;65157;50.082;18.178;2023-02-25T06:35:23;4.50;;;2.70;;
76336;SDS011;65157;50.082;18.178;2023-02-25T06:37:56;2.90;;;2.10;;
76336;SDS011;65157;50.082;18.178;2023-02-25T06:40:24;3.10;;;1.70;;
76336;SDS011;65157;50.082;18.178;2023-02-25T06:45:18;2.90;;;1.70;;
76336;SDS011;65157;50.082;18.178;2023-02-25T06:47:44;1.60;;;1.40;;
76336;SDS011;65157;50.082;18.178;2023-02-25T06:50:11;1.10;;;1.00;;
76336;SDS011;65157;50.082;18.178;2023-02-25T06:52:38;1.80;;;1.40;;
76336;SDS011;65157;50.082;18.178;2023-02-25T06:55:04;2.00;;;1.30;;
76336;SDS011;65157;50.082;18.178;2023-02-25T06:57:32;2.10;;;1.40;;
76336;SDS011;65157;50.082;18.178;2023-02-25T06:59:59;1.40;;;1.30;;
76336;SDS011;65157;50.082;18.178;2023-02-25T07:02:26;0.70;;;0.70;;
76336;SDS011;65157;50.082;18.178;2023-02-25T07:04:53;0.50;;;0.40;;
76336;SDS011;65157;50.082;18.178;2023-02-25T07:07:20;0.80;;;0.80;;
76336;SDS011;65157;50.082;18.178;2023-02-25T07:09:47;0.80;;;0.80;;
76336;SDS011;65157;50.082;18.178;2023-02-25T07:12:14;2.50;;;0.80;;
76336;SDS011;65157;50.082;18.178;2023-02-25T07:14:41;0.80;;;0.80;;
76336;SDS011;65157;50.082;18.178;2023-02-25T07:17:07;0.60;;;0.60;;
76336;SDS011;65157;50.082;18.178;2023-02-25T07:19:34;0.80;;;0.60;;
76336;SDS011;65157;50.082;18.178;2023-02-25T07:22:00;1.00;;;0.80;;
76336;SDS011;65157;50.082;18.178;2023-02-25T07:24:27;0.10;;;0.10;;
76336;SDS011;65157;50.082;18.178;2023-02-25T07:26:54;1.10;;;0.90;;
76336;SDS011;65157;50.082;18.178;2023-02-25T07:29:21;2.60;;;0.90;;
76336;SDS011;65157;50.082;18.178;2023-02-25T07:31:47;2.30;;;1.30;;
76336;SDS011;65157;50.082;18.178;2023-02-25T07:34:14;1.80;;;1.50;;
76336;SDS011;65157;50.082;18.178;2023-02-25T07:36:41;2.50;;;1.60;;
76336;SDS011;65157;50.082;18.178;2023-02-25T07:39:08;1.80;;;1.30;;
76336;SDS011;65157;50.082;18.178;2023-02-25T07:41:37;1.60;;;1.10;;
76336;SDS011;65157;50.082;18.178;2023-02-25T07:44:04;0.60;;;0.60;;
76336;SDS011;65157;50.082;18.178;2023-02-25T07:46:32;1.10;;;1.00;;
76336;SDS011;65157;50.082;18.178;2023-02-25T07:48:59;0.90;;;0.60;;
76336;SDS011;65157;50.082;18.178;2023-02-25T07:51:25;2.00;;;0.90;;
76336;SDS011;65157;50.082;18.178;2023-02-25T07:53:53;1.10;;;1.00;;
76336;SDS011;65157;50.082;18.178;2023-02-25T07:56:22;1.40;;;1.00;;
76336;SDS011;65157;50.082;18.178;2023-02-25T07:58:50;2.00;;;1.30;;
76336;SDS011;65157;50.082;18.178;2023-02-25T08:01:20;3.60;;;2.20;;
76336;SDS011;65157;50.082;18.178;2023-02-25T08:03:50;2.00;;;1.20;;
76336;SDS011;65157;50.082;18.178;2023-02-25T08:06:17;2.30;;;1.30;;
76336;SDS011;65157;50.082;18.178;2023-02-25T08:08:45;1.10;;;0.90;;
76336;SDS011;65157;50.082;18.178;2023-02-25T08:11:13;0.90;;;0.90;;
76336;SDS011;65157;50.082;18.178;2023-02-25T08:16:07;1.50;;;1.00;;
76336;SDS011;65157;50.082;18.178;2023-02-25T08:18:36;1.10;;;1.00;;
76336;SDS011;65157;50.082;18.178;2023-02-25T08:21:03;1.70;;;0.70;;
76336;SDS011;65157;50.082;18.178;2023-02-25T08:25:57;0.50;;;0.50;;
76336;SDS011;65157;50.082;18.178;2023-02-25T08:28:25;1.90;;;0.90;;
76336;SDS011;65157;50.082;18.178;2023-02-25T08:30:53;1.40;;;1.10;;
76336;SDS011;65157;50.082;18.178;2023-02-25T08:33:20;0.60;;;0.50;;
76336;SDS011;65157;50.082;18.178;2023-02-25T08:35:47;0.50;;;0.20;;
76336;SDS011;65157;50.082;18.178;2023-02-25T08:38:13;0.60;;;0.40;;
76336;SDS011;65157;50.082;18.178;2023-02-25T08:40:40;0.70;;;0.70;;
76336;SDS011;65157;50.082;18.178;2023-02-25T08:43:07;2.00;;;0.70;;
76336;SDS011;65157;50.082;18.178;2023-02-25T08:45:39;1.60;;;0.90;;
76336;SDS011;65157;50.082;18.178;2023-02-25T08:48:06;1.20;;;0.90;;
76336;SDS011;65157;50.082;18.178;2023-02-25T08:50:33;1.30;;;0.90;;
76336;SDS011;65157;50.082;18.178;2023-02-25T08:52:59;0.80;;;0.60;;
76336;SDS011;65157;50.082;18.178;2023-02-25T08:55:26;1.30;;;0.70;;
76336;SDS011;65157;50.082;18.178;2023-02-25T08:57:52;1.00;;;0.80;;
76336;SDS011;65157;50.082;18.178;2023-02-25T09:00:20;0.50;;;0.40;;
76336;SDS011;65157;50.082;18.178;2023-02-25T09:02:46;0.30;;;0.30;;
76336;SDS011;65157;50.082;18.178;2023-02-25T09:05:13;1.10;;;0.50;;
76336;SDS011;65157;50.082;18.178;2023-02-25T09:07:40;0.50;;;0.50;;
76336;SDS011;65157;50.082;18.178;2023-02-25T09:10:06;0.80;;;0.60;;
76336;SDS011;65157;50.082;18.178;2023-02-25T09:12:34;1.00;;;0.90;;
76336;SDS011;65157;50.082;18.178;2023-02-25T09:15:01;1.00;;;0.30;;
76336;SDS011;65157;50.082;18.178;2023-02-25T09:17:28;0.40;;;0.30;;
76336;SDS011;65157;50.082;18.178;2023-02-25T09:19:55;0.30;;;0.30;;
76336;SDS011;65157;50.082;18.178;2023-02-25T09:22:21;1.00;;;0.40;;
76336;SDS011;65157;50.082;18.178;2023-02-25T09:24:48;0.30;;;0.30;;
76336;SDS011;65157;50.082;18.178;2023-02-25T09:27:14;0.60;;;0.50;;
76336;SDS011;65157;50.082;18.178;2023-02-25T09:29:41;0.50;;;0.50;;
76336;SDS011;65157;50.082;18.178;2023-02-25T09:32:08;1.00;;;0.90;;
76336;SDS011;65157;50.082;18.178;2023-02-25T09:34:41;0.40;;;0.40;;
76336;SDS011;65157;50.082;18.178;2023-02-25T09:37:08;0.50;;;0.50;;
76336;SDS011;65157;50.082;18.178;2023-02-25T09:39:35;1.20;;;0.60;;
76336;SDS011;65157;50.082;18.178;2023-02-25T09:42:05;1.00;;;0.50;;
76336;SDS011;65157;50.082;18.178;2023-02-25T09:44:43;0.70;;;0.50;;
76336;SDS011;65157;50.082;18.178;2023-02-25T09:49:50;0.90;;;0.90;;
76336;SDS011;65157;50.082;18.178;2023-02-25T09:52:35;0.90;;;0.70;;
76336;SDS011;65157;50.082;18.178;2023-02-25T09:55:27;1.10;;;1.00;;
76336;SDS011;65157;50.082;18.178;2023-02-25T10:00:48;0.90;;;0.80;;
76336;SDS011;65157;50.082;18.178;2023-02-25T10:03:21;0.90;;;0.90;;
76336;SDS011;65157;50.082;18.178;2023-02-25T10:11:59;0.90;;;0.40;;
76336;SDS011;65157;50.082;18.178;2023-02-25T10:15:01;1.00;;;0.60;;
76336;SDS011;65157;50.082;18.178;2023-02-25T10:17:59;2.20;;;1.30;;
76336;SDS011;65157;50.082;18.178;2023-02-25T10:20:51;1.40;;;0.60;;
76336;SDS011;65157;50.082;18.178;2023-02-25T10:23:38;2.70;;;0.90;;
76336;SDS011;65157;50.082;18.178;2023-02-25T10:28:41;1.00;;;0.90;;
76336;SDS011;65157;50.082;18.178;2023-02-25T10:31:11;2.20;;;1.00;;
76336;SDS011;65157;50.082;18.178;2023-02-25T10:33:41;1.20;;;0.90;;
76336;SDS011;65157;50.082;18.178;2023-02-25T10:36:18;0.90;;;0.70;;
76336;SDS011;65157;50.082;18.178;2023-02-25T10:38:51;1.80;;;0.70;;
76336;SDS011;65157;50.082;18.178;2023-02-25T10:41:20;0.60;;;0.60;;
76336;SDS011;65157;50.082;18.178;2023-02-25T10:43:49;1.30;;;1.00;;
76336;SDS011;65157;50.082;18.178;2023-02-25T10:48:45;0.60;;;0.60;;
76336;SDS011;65157;50.082;18.178;2023-02-25T10:51:18;0.90;;;0.80;;
76336;SDS011;65157;50.082;18.178;2023-02-25T10:56:20;1.00;;;1.00;;
76336;SDS011;65157;50.082;18.178;2023-02-25T11:01:28;0.70;;;0.70;;
76336;SDS011;65157;50.082;18.178;2023-02-25T11:04:09;1.80;;;1.10;;
76336;SDS011;65157;50.082;18.178;2023-02-25T11:06:40;1.00;;;0.80;;
76336;SDS011;65157;50.082;18.178;2023-02-25T11:11:55;2.30;;;1.40;;
76336;SDS011;65157;50.082;18.178;2023-02-25T11:14:30;1.40;;;1.00;;
76336;SDS011;65157;50.082;18.178;2023-02-25T11:17:05;1.10;;;0.80;;
76336;SDS011;65157;50.082;18.178;2023-02-25T11:19:44;0.60;;;0.60;;
76336;SDS011;65157;50.082;18.178;2023-02-25T11:22:19;1.30;;;0.90;;
76336;SDS011;65157;50.082;18.178;2023-02-25T11:24:59;0.70;;;0.70;;
76336;SDS011;65157;50.082;18.178;2023-02-25T11:30:02;0.30;;;0.30;;
76336;SDS011;65157;50.082;18.178;2023-02-25T11:32:41;1.70;;;0.90;;
76336;SDS011;65157;50.082;18.178;2023-02-25T11:35:16;0.80;;;0.60;;
76336;SDS011;65157;50.082;18.178;2023-02-25T11:37:45;2.90;;;1.50;;
76336;SDS011;65157;50.082;18.178;2023-02-25T11:45:38;3.90;;;2.60;;
76336;SDS011;65157;50.082;18.178;2023-02-25T11:48:15;3.20;;;1.60;;
76336;SDS011;65157;50.082;18.178;2023-02-25T11:50:47;2.70;;;1.80;;
76336;SDS011;65157;50.082;18.178;2023-02-25T11:53:23;3.20;;;1.60;;
76336;SDS011;65157;50.082;18.178;2023-02-25T11:56:14;3.20;;;1.40;;
76336;SDS011;65157;50.082;18.178;2023-02-25T12:05:24;4.60;;;2.50;;
76336;SDS011;65157;50.082;18.178;2023-02-25T12:07:57;11.20;;;3.80;;
76336;SDS011;65157;50.082;18.178;2023-02-25T12:24:39;2.60;;;1.60;;
76336;SDS011;65157;50.082;18.178;2023-02-25T12:33:25;5.60;;;2.70;;
76336;SDS011;65157;50.082;18.178;2023-02-25T12:39:35;6.30;;;2.60;;
76336;SDS011;65157;50.082;18.178;2023-02-25T12:45:34;5.40;;;2.70;;
76336;SDS011;65157;50.082;18.178;2023-02-25T12:56:23;5.20;;;2.80;;
76336;SDS011;65157;50.082;18.178;2023-02-25T13:02:01;6.20;;;2.20;;
76336;SDS011;65157;50.082;18.178;2023-02-25T13:12:36;1.70;;;1.10;;
76336;SDS011;65157;50.082;18.178;2023-02-25T13:15:19;7.60;;;2.90;;
76336;SDS011;65157;50.082;18.178;2023-02-25T13:21:04;3.20;;;1.20;;
76336;SDS011;65157;50.082;18.178;2023-02-25T13:28:54;2.10;;;1.20;;
76336;SDS011;65157;50.082;18.178;2023-02-25T13:42:26;2.50;;;1.50;;
76336;SDS011;65157;50.082;18.178;2023-02-25T13:50:40;3.10;;;1.50;;
76336;SDS011;65157;50.082;18.178;2023-02-25T14:07:53;2.60;;;1.20;;
76336;SDS011;65157;50.082;18.178;2023-02-25T14:13:10;0.70;;;0.70;;
76336;SDS011;65157;50.082;18.178;2023-02-25T14:16:14;3.10;;;1.70;;
76336;SDS011;65157;50.082;18.178;2023-02-25T14:27:47;2.10;;;1.00;;
76336;SDS011;65157;50.082;18.178;2023-02-25T14:38:14;4.00;;;1.20;;
76336;SDS011;65157;50.082;18.178;2023-02-25T14:40:48;1.10;;;1.00;;
76336;SDS011;65157;50.082;18.178;2023-02-25T15:02:27;36.80;;;12.10;;
76336;SDS011;65157;50.082;18.178;2023-02-25T15:21:39;2.10;;;1.10;;
76336;SDS011;65157;50.082;18.178;2023-02-25T15:24:34;4.50;;;2.00;;
76336;SDS011;65157;50.082;18.178;2023-02-25T15:33:13;0.60;;;0.60;;
76336;SDS011;65157;50.082;18.178;2023-02-25T15:35:49;0.60;;;0.60;;
76336;SDS011;65157;50.082;18.178;2023-02-25T15:38:20;1.60;;;0.90;;
76336;SDS011;65157;50.082;18.178;2023-02-25T15:41:05;7.30;;;2.40;;
76336;SDS011;65157;50.082;18.178;2023-02-25T15:43:53;9.20;;;3.40;;
76336;SDS011;65157;50.082;18.178;2023-02-25T15:51:45;5.00;;;2.80;;
76336;SDS011;65157;50.082;18.178;2023-02-25T16:04:54;9.30;;;4.10;;
76336;SDS011;65157;50.082;18.178;2023-02-25T16:07:23;23.40;;;8.80;;
76336;SDS011;65157;50.082;18.178;2023-02-25T16:09:57;11.00;;;5.50;;
76336;SDS011;65157;50.082;18.178;2023-02-25T16:12:53;8.50;;;3.60;;
76336;SDS011;65157;50.082;18.178;2023-02-25T16:15:47;6.80;;;3.60;;
76336;SDS011;65157;50.082;18.178;2023-02-25T16:18:44;20.20;;;7.00;;
76336;SDS011;65157;50.082;18.178;2023-02-25T16:24:34;18.30;;;6.60;;
76336;SDS011;65157;50.082;18.178;2023-02-25T16:27:33;24.50;;;8.90;;
76336;SDS011;65157;50.082;18.178;2023-02-25T16:30:44;19.50;;;6.60;;
76336;SDS011;65157;50.082;18.178;2023-02-25T16:39:52;4.00;;;1.90;;
76336;SDS011;65157;50.082;18.178;2023-02-25T16:42:43;5.70;;;2.70;;
76336;SDS011;65157;50.082;18.178;2023-02-25T16:45:36;3.50;;;2.00;;
76336;SDS011;65157;50.082;18.178;2023-02-25T16:54:26;6.90;;;2.70;;
76336;SDS011;65157;50.082;18.178;2023-02-25T16:57:22;3.10;;;1.70;;
76336;SDS011;65157;50.082;18.178;2023-02-25T17:00:17;2.20;;;1.30;;
76336;SDS011;65157;50.082;18.178;2023-02-25T17:03:10;1.70;;;0.90;;
76336;SDS011;65157;50.082;18.178;2023-02-25T17:08:54;2.70;;;1.40;;
76336;SDS011;65157;50.082;18.178;2023-02-25T17:11:44;3.90;;;2.10;;
76336;SDS011;65157;50.082;18.178;2023-02-25T17:14:44;1.10;;;1.00;;
76336;SDS011;65157;50.082;18.178;2023-02-25T17:17:39;1.50;;;1.00;;
76336;SDS011;65157;50.082;18.178;2023-02-25T17:20:32;4.20;;;1.60;;
76336;SDS011;65157;50.082;18.178;2023-02-25T17:23:24;1.00;;;0.90;;
76336;SDS011;65157;50.082;18.178;2023-02-25T17:26:15;2.60;;;1.10;;
76336;SDS011;65157;50.082;18.178;2023-02-25T17:29:09;1.90;;;1.50;;
76336;SDS011;65157;50.082;18.178;2023-02-25T17:35:01;2.60;;;1.60;;
76336;SDS011;65157;50.082;18.178;2023-02-25T17:37:53;2.40;;;1.50;;
76336;SDS011;65157;50.082;18.178;2023-02-25T17:40:45;1.80;;;1.40;;
76336;SDS011;65157;50.082;18.178;2023-02-25T17:43:37;1.00;;;0.70;;
76336;SDS011;65157;50.082;18.178;2023-02-25T17:46:32;2.90;;;1.40;;
76336;SDS011;65157;50.082;18.178;2023-02-25T17:49:26;5.70;;;2.00;;
76336;SDS011;65157;50.082;18.178;2023-02-25T17:52:23;6.70;;;2.40;;
76336;SDS011;65157;50.082;18.178;2023-02-25T17:58:20;12.50;;;3.60;;
76336;SDS011;65157;50.082;18.178;2023-02-25T18:01:22;13.20;;;4.30;;
76336;SDS011;65157;50.082;18.178;2023-02-25T18:04:25;8.70;;;3.00;;
76336;SDS011;65157;50.082;18.178;2023-02-25T18:10:47;6.80;;;3.00;;
76336;SDS011;65157;50.082;18.178;2023-02-25T18:13:35;2.40;;;1.50;;
76336;SDS011;65157;50.082;18.178;2023-02-25T18:16:39;4.30;;;1.60;;
76336;SDS011;65157;50.082;18.178;2023-02-25T18:19:35;3.90;;;2.20;;
76336;SDS011;65157;50.082;18.178;2023-02-25T18:22:47;2.90;;;1.70;;
76336;SDS011;65157;50.082;18.178;2023-02-25T18:25:39;1.10;;;1.00;;
76336;SDS011;65157;50.082;18.178;2023-02-25T18:31:22;5.10;;;2.60;;
76336;SDS011;65157;50.082;18.178;2023-02-25T18:34:13;4.00;;;2.00;;
76336;SDS011;65157;50.082;18.178;2023-02-25T18:37:04;3.20;;;1.70;;
76336;SDS011;65157;50.082;18.178;2023-02-25T18:39:55;1.50;;;1.20;;
76336;SDS011;65157;50.082;18.178;2023-02-25T18:42:46;1.90;;;1.70;;
76336;SDS011;65157;50.082;18.178;2023-02-25T18:45:37;1.20;;;1.00;;
76336;SDS011;65157;50.082;18.178;2023-02-25T18:48:28;2.40;;;1.60;;
76336;SDS011;65157;50.082;18.178;2023-02-25T18:51:19;0.80;;;0.70;;
76336;SDS011;65157;50.082;18.178;2023-02-25T18:54:13;1.90;;;1.40;;
76336;SDS011;65157;50.082;18.178;2023-02-25T18:57:08;1.20;;;1.00;;
76336;SDS011;65157;50.082;18.178;2023-02-25T19:00:07;3.40;;;1.50;;
76336;SDS011;65157;50.082;18.178;2023-02-25T19:03:02;2.40;;;1.70;;
76336;SDS011;65157;50.082;18.178;2023-02-25T19:05:53;1.10;;;0.80;;
76336;SDS011;65157;50.082;18.178;2023-02-25T19:08:44;1.70;;;1.30;;
76336;SDS011;65157;50.082;18.178;2023-02-25T19:11:35;3.10;;;1.70;;
76336;SDS011;65157;50.082;18.178;2023-02-25T19:14:26;2.60;;;1.20;;
76336;SDS011;65157;50.082;18.178;2023-02-25T19:17:17;3.00;;;1.70;;
76336;SDS011;65157;50.082;18.178;2023-02-25T19:20:10;3.50;;;1.80;;
76336;SDS011;65157;50.082;18.178;2023-02-25T19:23:02;3.60;;;1.20;;
76336;SDS011;65157;50.082;18.178;2023-02-25T19:25:59;3.10;;;1.10;;
76336;SDS011;65157;50.082;18.178;2023-02-25T19:28:50;4.70;;;2.70;;